createdAt,value
2018-03-26T00:00:50.699Z,83.10
2018-03-26T00:03:18.979Z,81.70
2018-03-26T00:05:47.222Z,81.30
2018-03-26T00:08:14.804Z,81.30
2018-03-26T00:10:42.277Z,81.10
2018-03-26T00:13:10.517Z,80.30
2018-03-26T00:15:38.011Z,80.20
2018-03-26T00:18:06.262Z,79.30
2018-03-26T00:20:33.754Z,79.30
2018-03-26T00:23:01.214Z,78.80
2018-03-26T00:25:28.739Z,78.70
2018-03-26T00:27:56.223Z,78.30
2018-03-26T00:30:23.701Z,79.10
2018-03-26T00:32:51.157Z,78.20
2018-03-26T00:35:18.683Z,78.40
2018-03-26T00:37:46.911Z,78.50
2018-03-26T00:40:14.376Z,78.50
2018-03-26T00:42:41.861Z,78.60
2018-03-26T00:45:10.106Z,78.60
2018-03-26T00:47:37.602Z,78.60
2018-03-26T00:50:05.862Z,78.50
2018-03-26T00:52:33.333Z,78.50
2018-03-26T00:55:01.565Z,78.20
2018-03-26T00:57:29.046Z,78.20
2018-03-26T00:59:56.516Z,78.10
2018-03-26T01:02:24.016Z,78.20
2018-03-26T01:04:51.524Z,77.90
2018-03-26T01:07:19.019Z,77.50
2018-03-26T01:09:47.261Z,76.70
2018-03-26T01:12:14.723Z,76.70
2018-03-26T01:14:42.202Z,76.70
2018-03-26T01:17:10.438Z,76.80
2018-03-26T01:19:37.938Z,76.70
2018-03-26T01:22:06.174Z,76.60
2018-03-26T01:24:33.658Z,76.60
2018-03-26T01:27:01.895Z,76.70
2018-03-26T01:29:29.401Z,76.60
2018-03-26T01:31:57.658Z,76.90
2018-03-26T01:34:25.122Z,76.80
2018-03-26T01:36:52.597Z,77.00
2018-03-26T01:39:20.845Z,77.40
2018-03-26T01:41:48.326Z,77.30
2018-03-26T01:44:16.557Z,77.90
2018-03-26T01:46:44.078Z,77.90
2018-03-26T01:49:11.541Z,78.00
2018-03-26T01:51:39.070Z,78.50
2018-03-26T01:54:07.346Z,79.20
2018-03-26T01:56:34.848Z,79.10
2018-03-26T01:59:02.344Z,79.20
2018-03-26T02:01:29.795Z,79.40
2018-03-26T02:03:57.297Z,79.30
2018-03-26T02:06:25.521Z,79.20
2018-03-26T02:08:53.006Z,79.20
2018-03-26T02:11:20.462Z,79.10
2018-03-26T02:13:47.934Z,79.10
2018-03-26T02:16:16.170Z,79.20
2018-03-26T02:18:43.653Z,79.20
2018-03-26T02:21:11.103Z,79.20
2018-03-26T02:23:38.581Z,79.50
2018-03-26T02:26:06.819Z,79.50
2018-03-26T02:28:34.274Z,79.50
2018-03-26T02:31:01.757Z,79.60
2018-03-26T02:33:29.263Z,79.90
2018-03-26T02:35:56.775Z,79.60
2018-03-26T02:38:25.770Z,80.40
2018-03-26T02:40:53.225Z,80.30
2018-03-26T02:43:20.684Z,81.10
2018-03-26T02:45:48.151Z,81.00
2018-03-26T02:48:16.378Z,81.00
2018-03-26T02:50:43.979Z,81.00
2018-03-26T02:53:11.392Z,81.00
2018-03-26T02:55:38.874Z,81.10
2018-03-26T02:58:07.854Z,81.50
2018-03-26T03:00:35.337Z,81.50
2018-03-26T03:03:02.801Z,81.50
2018-03-26T03:05:31.062Z,82.00
2018-03-26T03:07:59.309Z,82.50
2018-03-26T03:10:26.784Z,82.50
2018-03-26T03:12:54.262Z,82.60
2018-03-26T03:15:21.724Z,82.60
2018-03-26T03:17:49.985Z,82.60
2018-03-26T03:20:17.474Z,82.90
2018-03-26T03:22:45.718Z,83.70
2018-03-26T03:25:13.179Z,83.70
2018-03-26T03:27:40.682Z,83.70
2018-03-26T03:30:08.148Z,84.30
2018-03-26T03:32:35.639Z,84.70
2018-03-26T03:35:03.110Z,85.10
2018-03-26T03:37:30.598Z,85.60
2018-03-26T03:39:58.853Z,86.60
2018-03-26T03:42:26.347Z,86.60
2018-03-26T03:44:53.864Z,86.90
2018-03-26T03:47:21.319Z,86.90
2018-03-26T03:49:48.793Z,87.00
2018-03-26T03:52:17.027Z,88.00
2018-03-26T03:54:44.517Z,88.00
2018-03-26T03:57:12.009Z,88.30
2018-03-26T03:59:39.570Z,88.20
2018-03-26T04:02:07.090Z,88.30
2018-03-26T04:04:34.551Z,88.30
2018-03-26T04:07:02.059Z,88.50
2018-03-26T04:09:29.514Z,88.50
2018-03-26T04:11:56.992Z,88.40
2018-03-26T04:14:24.462Z,88.10
2018-03-26T04:16:51.937Z,87.90
2018-03-26T04:19:19.394Z,87.90
2018-03-26T04:21:46.889Z,87.60
2018-03-26T04:24:14.413Z,87.80
2018-03-26T04:26:41.874Z,87.90
2018-03-26T04:29:10.142Z,87.80
2018-03-26T04:31:37.610Z,87.80
2018-03-26T04:34:05.095Z,87.90
2018-03-26T04:36:32.561Z,88.10
2018-03-26T04:39:00.054Z,88.00
2018-03-26T04:41:27.520Z,87.90
2018-03-26T04:43:55.023Z,87.90
2018-03-26T04:46:22.486Z,87.80
2018-03-26T04:48:50.039Z,88.40
2018-03-26T04:51:17.507Z,87.70
2018-03-26T04:53:45.019Z,87.80
2018-03-26T04:56:12.474Z,88.10
2018-03-26T04:58:39.952Z,88.20
2018-03-26T05:01:07.447Z,88.60
2018-03-26T05:03:36.904Z,88.80
2018-03-26T05:06:04.399Z,88.90
2018-03-26T05:08:31.862Z,89.00
2018-03-26T05:10:59.338Z,89.10
2018-03-26T05:13:26.801Z,89.20
2018-03-26T05:15:54.271Z,89.30
2018-03-26T05:18:21.742Z,89.30
2018-03-26T05:20:49.230Z,89.20
2018-03-26T05:23:17.498Z,88.90
2018-03-26T05:25:45.060Z,88.90
2018-03-26T05:28:13.282Z,88.70
2018-03-26T05:30:40.760Z,88.60
2018-03-26T05:33:08.283Z,88.50
2018-03-26T05:35:35.747Z,88.50
2018-03-26T05:38:03.359Z,88.40
2018-03-26T05:40:30.879Z,88.40
2018-03-26T05:42:58.353Z,88.40
2018-03-26T05:45:25.822Z,88.30
2018-03-26T05:47:53.342Z,88.20
2018-03-26T05:50:20.804Z,88.10
2018-03-26T05:52:48.295Z,88.10
2018-03-26T05:55:15.761Z,88.00
2018-03-26T05:57:43.247Z,87.60
2018-03-26T06:00:10.714Z,87.30
2018-03-26T06:02:38.291Z,86.90
2018-03-26T06:05:05.772Z,86.60
2018-03-26T06:07:33.873Z,86.10
2018-03-26T06:10:01.399Z,85.80
2018-03-26T06:12:28.863Z,85.40
2018-03-26T06:14:56.350Z,84.70
2018-03-26T06:17:23.823Z,84.70
2018-03-26T06:19:52.073Z,84.90
2018-03-26T06:22:19.553Z,84.80
2018-03-26T06:24:47.806Z,84.50
2018-03-26T06:27:15.267Z,84.40
2018-03-26T06:29:42.745Z,84.10
2018-03-26T06:32:10.988Z,83.00
2018-03-26T06:34:38.466Z,83.00
2018-03-26T06:37:16.650Z,81.80
2018-03-26T06:39:44.130Z,81.50
2018-03-26T06:42:11.622Z,81.00
2018-03-26T06:44:39.118Z,80.20
2018-03-26T06:47:06.656Z,80.20
2018-03-26T06:49:34.363Z,80.20
2018-03-26T06:52:01.878Z,80.10
2018-03-26T06:54:29.347Z,78.80
2018-03-26T06:56:56.835Z,78.60
2018-03-26T06:59:24.317Z,78.30
2018-03-26T07:01:52.542Z,76.90
2018-03-26T07:04:20.799Z,76.50
2018-03-26T07:06:48.325Z,76.50
2018-03-26T07:09:15.786Z,76.20
2018-03-26T07:11:44.023Z,76.20
2018-03-26T07:14:11.523Z,76.10
2018-03-26T07:16:39.762Z,75.40
2018-03-26T07:19:07.263Z,75.30
2018-03-26T07:21:35.514Z,73.80
2018-03-26T07:24:03.002Z,73.80
2018-03-26T07:26:30.495Z,72.80
2018-03-26T07:28:58.008Z,72.60
2018-03-26T07:31:25.450Z,71.00
2018-03-26T07:33:53.721Z,69.90
2018-03-26T07:36:21.195Z,69.80
2018-03-26T07:38:49.435Z,69.50
2018-03-26T07:41:16.977Z,69.40
2018-03-26T07:43:44.421Z,69.60
2018-03-26T07:46:11.917Z,68.60
2018-03-26T07:48:39.406Z,68.40
2018-03-26T07:51:06.893Z,67.90
2018-03-26T07:53:34.392Z,68.00
2018-03-26T07:56:01.906Z,67.40
2018-03-26T07:58:29.368Z,67.60
2018-03-26T08:00:56.845Z,67.10
2018-03-26T08:03:24.370Z,67.80
2018-03-26T08:05:51.860Z,67.70
2018-03-26T08:08:19.330Z,68.20
2018-03-26T08:10:46.797Z,68.60
2018-03-26T08:13:14.297Z,69.20
2018-03-26T08:15:41.769Z,69.00
2018-03-26T08:18:09.278Z,67.70
2018-03-26T08:20:36.742Z,68.10
2018-03-26T08:23:04.248Z,68.00
2018-03-26T08:25:31.719Z,67.90
2018-03-26T08:27:59.236Z,69.10
2018-03-26T08:30:26.700Z,68.30
2018-03-26T08:32:54.168Z,68.60
2018-03-26T08:35:21.655Z,68.40
2018-03-26T08:37:49.118Z,68.20
2018-03-26T08:40:16.617Z,68.50
2018-03-26T08:42:44.856Z,68.20
2018-03-26T08:45:12.364Z,68.20
2018-03-26T08:47:39.829Z,68.60
2018-03-26T08:50:07.366Z,69.00
2018-03-26T08:52:35.588Z,68.00
2018-03-26T08:55:03.057Z,68.00
2018-03-26T08:57:30.559Z,68.10
2018-03-26T08:59:58.926Z,67.10
2018-03-26T09:02:27.202Z,67.40
2018-03-26T09:04:55.429Z,67.00
2018-03-26T09:07:22.946Z,67.00
2018-03-26T09:09:51.195Z,65.90
2018-03-26T09:12:18.715Z,65.90
2018-03-26T09:14:46.191Z,66.10
2018-03-26T09:17:13.697Z,65.40
2018-03-26T09:19:41.950Z,64.50
2018-03-26T09:22:09.480Z,64.50
2018-03-26T09:24:37.758Z,63.10
2018-03-26T09:27:05.245Z,63.10
2018-03-26T09:29:33.508Z,59.60
2018-03-26T09:32:01.022Z,59.50
2018-03-26T09:34:28.495Z,59.90
2018-03-26T09:36:56.008Z,60.10
2018-03-26T09:39:23.475Z,58.00
2018-03-26T09:41:51.715Z,57.90
2018-03-26T09:44:19.969Z,57.30
2018-03-26T09:46:47.484Z,57.60
2018-03-26T09:49:15.768Z,55.70
2018-03-26T09:51:44.020Z,55.60
2018-03-26T09:54:12.347Z,55.70
2018-03-26T09:56:40.662Z,55.70
2018-03-26T09:59:08.154Z,54.60
2018-03-26T10:01:41.208Z,55.10
2018-03-26T10:04:08.703Z,56.00
2018-03-26T10:06:36.183Z,55.30
2018-03-26T10:09:03.701Z,54.80
2018-03-26T10:11:31.195Z,53.40
2018-03-26T10:13:58.673Z,52.80
2018-03-26T10:16:26.166Z,53.70
2018-03-26T10:18:53.648Z,53.10
2018-03-26T10:21:21.916Z,52.40
2018-03-26T10:23:50.154Z,52.00
2018-03-26T10:26:18.586Z,52.10
2018-03-26T10:28:46.170Z,53.30
2018-03-26T10:31:13.722Z,54.20
2018-03-26T10:33:41.930Z,53.70
2018-03-26T10:36:09.432Z,53.70
2018-03-26T10:38:37.678Z,51.80
2018-03-26T10:41:05.183Z,51.80
2018-03-26T10:43:32.673Z,52.10
2018-03-26T10:46:00.173Z,52.80
2018-03-26T10:48:28.425Z,54.30
2018-03-26T10:50:55.893Z,54.30
2018-03-26T10:53:23.384Z,54.30
2018-03-26T10:55:50.865Z,53.00
2018-03-26T10:58:18.362Z,52.50
2018-03-26T11:00:45.843Z,52.10
2018-03-26T11:03:14.139Z,51.60
2018-03-26T11:05:41.623Z,51.60
2018-03-26T11:08:09.098Z,51.10
2018-03-26T11:10:36.616Z,49.70
2018-03-26T11:13:04.086Z,48.40
2018-03-26T11:15:31.610Z,48.90
2018-03-26T11:17:59.898Z,47.70
2018-03-26T11:20:28.141Z,48.40
2018-03-26T11:22:55.749Z,48.40
2018-03-26T11:25:23.242Z,46.30
2018-03-26T11:27:51.684Z,46.30
2018-03-26T11:30:19.230Z,46.60
2018-03-26T11:32:47.497Z,45.90
2018-03-26T11:35:15.755Z,46.50
2018-03-26T11:37:43.247Z,46.40
2018-03-26T11:40:11.515Z,47.20
2018-03-26T11:42:39.762Z,48.40
2018-03-26T11:45:07.281Z,48.40
2018-03-26T11:47:34.775Z,49.20
2018-03-26T11:50:02.291Z,49.30
2018-03-26T11:52:29.799Z,48.50
2018-03-26T11:54:58.075Z,47.40
2018-03-26T11:57:25.557Z,47.40
2018-03-26T11:59:53.807Z,46.40
2018-03-26T12:02:22.797Z,46.50
2018-03-26T12:04:50.308Z,46.50
2018-03-26T12:07:17.800Z,46.90
2018-03-26T12:09:45.266Z,46.90
2018-03-26T12:12:12.757Z,48.50
2018-03-26T12:14:41.034Z,49.40
2018-03-26T12:17:09.270Z,51.90
2018-03-26T12:19:48.770Z,51.20
2018-03-26T12:22:16.248Z,51.00
2018-03-26T12:24:55.718Z,51.60
2018-03-26T12:27:23.201Z,51.70
2018-03-26T12:30:03.507Z,50.30
2018-03-26T12:32:31.033Z,50.30
2018-03-26T12:35:10.283Z,49.70
2018-03-26T12:37:37.828Z,50.10
2018-03-26T12:40:05.287Z,47.80
2018-03-26T12:42:32.827Z,45.90
2018-03-26T12:45:12.080Z,42.00
2018-03-26T12:47:39.543Z,33.40
2018-03-26T12:50:07.043Z,27.30
2018-03-26T12:52:56.517Z,20.20
2018-03-26T12:55:24.015Z,20.60
2018-03-26T12:58:04.281Z,24.30
2018-03-26T13:00:31.827Z,24.20
2018-03-26T13:03:00.065Z,32.50
2018-03-26T13:05:27.554Z,32.40
2018-03-26T13:07:55.827Z,40.50
2018-03-26T13:10:24.096Z,41.80
2018-03-26T13:12:51.570Z,41.10
2018-03-26T13:15:19.817Z,43.30
2018-03-26T13:17:47.340Z,43.30
2018-03-26T13:20:14.844Z,45.50
2018-03-26T13:22:42.334Z,46.80
2018-03-26T13:25:10.559Z,47.10
2018-03-26T13:27:38.050Z,47.10
2018-03-26T13:30:06.286Z,49.20
2018-03-26T13:32:33.805Z,49.20
2018-03-26T13:35:02.032Z,48.90
2018-03-26T13:37:29.514Z,48.90
2018-03-26T13:39:57.753Z,50.90
2018-03-26T13:42:25.294Z,50.50
2018-03-26T13:44:52.776Z,50.00
2018-03-26T13:47:20.313Z,50.40
2018-03-26T13:49:47.812Z,50.80
2018-03-26T13:52:15.321Z,51.70
2018-03-26T13:54:42.815Z,51.40
2018-03-26T13:57:10.529Z,51.50
2018-03-26T13:59:38.064Z,51.20
2018-03-26T14:02:05.546Z,52.10
2018-03-26T14:04:33.116Z,53.90
2018-03-26T14:07:00.623Z,53.50
2018-03-26T14:09:39.889Z,53.20
2018-03-26T14:12:19.964Z,55.10
2018-03-26T14:14:59.462Z,55.00
2018-03-26T14:17:39.525Z,57.60
2018-03-26T14:20:07.008Z,56.90
2018-03-26T14:22:34.501Z,57.60
2018-03-26T14:25:02.026Z,58.10
2018-03-26T14:27:29.504Z,58.90
2018-03-26T14:29:57.017Z,59.20
2018-03-26T14:32:25.263Z,62.30
2018-03-26T14:35:04.823Z,62.20
2018-03-26T14:37:32.297Z,63.40
2018-03-26T14:39:59.781Z,63.00
2018-03-26T14:42:27.328Z,64.20
2018-03-26T14:44:54.851Z,66.00
2018-03-26T14:47:23.102Z,68.70
2018-03-26T14:49:50.612Z,68.60
2018-03-26T14:52:18.881Z,67.80
2018-03-26T14:54:47.230Z,68.00
2018-03-26T14:57:15.508Z,69.00
2018-03-26T14:59:43.032Z,69.00
2018-03-26T15:02:10.587Z,68.70
2018-03-26T15:04:38.102Z,69.10
2018-03-26T15:07:05.594Z,69.00
2018-03-26T15:09:33.089Z,69.20
2018-03-26T15:12:00.586Z,69.20
2018-03-26T15:14:28.872Z,69.60
2018-03-26T15:16:57.100Z,70.40
2018-03-26T15:19:24.607Z,70.40
2018-03-26T15:21:52.094Z,71.60
2018-03-26T15:24:19.607Z,71.30
2018-03-26T15:26:47.856Z,72.00
2018-03-26T15:29:15.341Z,72.70
2018-03-26T15:31:43.605Z,72.40
2018-03-26T15:34:11.110Z,72.40
2018-03-26T15:36:38.808Z,71.90
2018-03-26T15:39:06.308Z,72.30
2018-03-26T15:41:35.154Z,71.90
2018-03-26T15:44:02.633Z,72.00
2018-03-26T15:46:30.140Z,72.30
2018-03-26T15:48:57.606Z,72.60
2018-03-26T15:51:25.124Z,72.80
2018-03-26T15:53:53.418Z,72.20
2018-03-26T15:56:20.892Z,72.10
2018-03-26T15:58:48.396Z,72.60
2018-03-26T16:01:15.901Z,72.60
2018-03-26T16:03:43.397Z,73.70
2018-03-26T16:06:10.949Z,72.00
2018-03-26T16:08:38.476Z,71.10
2018-03-26T16:11:05.945Z,70.70
2018-03-26T16:13:33.470Z,70.80
2018-03-26T16:16:01.729Z,71.40
2018-03-26T16:18:29.224Z,71.40
2018-03-26T16:20:56.756Z,70.50
2018-03-26T16:23:25.007Z,73.70
2018-03-26T16:25:52.530Z,73.00
2018-03-26T16:28:20.030Z,73.50
2018-03-26T16:30:47.598Z,73.30
2018-03-26T16:33:15.117Z,73.80
2018-03-26T16:35:42.662Z,75.10
2018-03-26T16:38:10.233Z,77.40
2018-03-26T16:40:38.521Z,82.80
2018-03-26T16:43:06.009Z,82.70
2018-03-26T16:45:33.540Z,84.60
2018-03-26T16:48:01.036Z,85.20
2018-03-26T16:50:30.053Z,86.50
2018-03-26T16:52:58.529Z,87.10
2018-03-26T16:55:26.800Z,87.10
2018-03-26T16:57:55.054Z,87.00
2018-03-26T17:00:24.109Z,86.60
2018-03-26T17:02:51.628Z,86.50
2018-03-26T17:05:19.908Z,86.10
2018-03-26T17:07:48.171Z,86.20
2018-03-26T17:10:15.644Z,86.10
2018-03-26T17:12:43.916Z,86.80
2018-03-26T17:15:12.163Z,86.20
2018-03-26T17:17:39.659Z,86.20
2018-03-26T17:20:07.926Z,84.90
2018-03-26T17:22:36.222Z,85.80
2018-03-26T17:25:03.756Z,85.10
2018-03-26T17:27:31.238Z,85.00
2018-03-26T17:29:58.737Z,85.70
2018-03-26T17:32:26.440Z,85.00
2018-03-26T17:34:54.706Z,84.70
2018-03-26T17:37:22.961Z,84.40
2018-03-26T17:39:50.478Z,84.40
2018-03-26T17:42:17.975Z,84.10
2018-03-26T17:44:45.516Z,84.00
2018-03-26T17:47:13.012Z,84.20
2018-03-26T17:49:40.521Z,84.30
2018-03-26T17:52:08.130Z,84.30
2018-03-26T17:54:35.631Z,84.40
2018-03-26T17:57:03.183Z,84.60
2018-03-26T17:59:30.720Z,84.70
2018-03-26T18:01:58.226Z,84.80
2018-03-26T18:04:25.722Z,84.70
2018-03-26T18:06:53.260Z,84.60
2018-03-26T18:09:20.754Z,84.20
2018-03-26T18:11:48.260Z,84.50
2018-03-26T18:14:15.771Z,84.60
2018-03-26T18:16:44.036Z,84.60
2018-03-26T18:19:11.548Z,84.60
2018-03-26T18:21:39.031Z,84.70
2018-03-26T18:24:06.665Z,85.40
2018-03-26T18:26:34.161Z,84.60
2018-03-26T18:29:01.866Z,84.60
2018-03-26T18:31:29.380Z,84.60
2018-03-26T18:33:56.883Z,84.60
2018-03-26T18:36:24.454Z,84.50
2018-03-26T18:38:51.941Z,84.40
2018-03-26T18:41:19.455Z,84.60
2018-03-26T18:43:47.706Z,84.50
2018-03-26T18:46:15.199Z,84.40
2018-03-26T18:48:42.658Z,84.40
2018-03-26T18:51:10.187Z,84.40
2018-03-26T18:53:37.714Z,84.50
2018-03-26T18:56:05.269Z,85.10
2018-03-26T18:58:32.776Z,84.70
2018-03-26T19:01:01.040Z,84.70
2018-03-26T19:03:29.357Z,84.70
2018-03-26T19:05:56.865Z,84.60
2018-03-26T19:08:24.400Z,84.70
2018-03-26T19:10:51.908Z,84.80
2018-03-26T19:13:20.167Z,85.30
2018-03-26T19:15:47.646Z,85.20
2018-03-26T19:18:15.903Z,85.60
2018-03-26T19:20:44.155Z,86.20
2018-03-26T19:23:11.653Z,85.50
2018-03-26T19:25:39.226Z,85.40
2018-03-26T19:28:06.705Z,85.50
2018-03-26T19:30:34.247Z,85.80
2018-03-26T19:33:01.748Z,86.00
2018-03-26T19:35:29.284Z,86.20
2018-03-26T19:37:56.757Z,86.40
2018-03-26T19:40:24.284Z,86.90
2018-03-26T19:42:51.789Z,87.20
2018-03-26T19:45:19.384Z,87.30
2018-03-26T19:47:47.680Z,88.20
2018-03-26T19:50:15.171Z,88.20
2018-03-26T19:52:42.710Z,88.40
2018-03-26T19:55:10.192Z,88.70
2018-03-26T19:57:37.691Z,89.10
2018-03-26T20:00:05.953Z,90.00
2018-03-26T20:02:33.446Z,90.00
2018-03-26T20:05:01.013Z,90.20
2018-03-26T20:07:28.575Z,90.40
2018-03-26T20:09:56.100Z,90.80
2018-03-26T20:12:24.371Z,91.10
2018-03-26T20:14:51.860Z,91.00
2018-03-26T20:17:19.366Z,91.40
2018-03-26T20:19:46.864Z,91.10
2018-03-26T20:22:15.114Z,91.20
2018-03-26T20:24:42.634Z,91.20
2018-03-26T20:27:10.121Z,91.60
2018-03-26T20:29:37.693Z,91.40
2018-03-26T20:32:05.196Z,91.50
2018-03-26T20:34:32.691Z,91.70
2018-03-26T20:37:00.176Z,91.90
2018-03-26T20:39:28.439Z,91.80
2018-03-26T20:41:55.963Z,91.80
2018-03-26T20:44:23.475Z,91.60
2018-03-26T20:46:51.742Z,91.40
2018-03-26T20:49:19.253Z,91.40
2018-03-26T20:51:47.294Z,91.80
2018-03-26T20:54:14.814Z,91.80
2018-03-26T20:56:42.300Z,91.70
2018-03-26T20:59:10.548Z,91.60
2018-03-26T21:01:38.067Z,91.60
2018-03-26T21:04:05.532Z,91.70
2018-03-26T21:06:33.048Z,92.00
2018-03-26T21:09:01.328Z,92.10
2018-03-26T21:11:29.610Z,92.30
2018-03-26T21:13:57.864Z,92.50
2018-03-26T21:16:25.364Z,92.40
2018-03-26T21:18:52.850Z,92.40
2018-03-26T21:21:20.390Z,92.50
2018-03-26T21:23:47.865Z,92.40
2018-03-26T21:26:15.377Z,92.40
2018-03-26T21:28:43.626Z,92.40
2018-03-26T21:31:11.147Z,92.40
2018-03-26T21:33:38.674Z,92.40
2018-03-26T21:36:06.952Z,92.40
2018-03-26T21:38:34.434Z,92.40
2018-03-26T21:41:01.960Z,92.40
2018-03-26T21:43:30.242Z,92.30
2018-03-26T21:45:58.491Z,92.20
2018-03-26T21:48:26.021Z,92.20
2018-03-26T21:50:53.479Z,92.00
2018-03-26T21:53:20.984Z,91.90
2018-03-26T21:55:49.232Z,91.80
2018-03-26T21:58:16.707Z,92.10
2018-03-26T22:00:44.224Z,91.80
2018-03-26T22:03:11.734Z,91.70
2018-03-26T22:05:40.003Z,91.70
2018-03-26T22:08:08.288Z,91.60
2018-03-26T22:10:36.546Z,91.60
2018-03-26T22:13:04.007Z,91.60
2018-03-26T22:15:31.516Z,91.60
2018-03-26T22:17:58.970Z,91.60
2018-03-26T22:20:26.486Z,91.50
2018-03-26T22:22:54.005Z,91.40
2018-03-26T22:25:21.516Z,91.30
2018-03-26T22:27:49.742Z,91.20
2018-03-26T22:30:17.297Z,91.20
2018-03-26T22:32:44.800Z,91.20
2018-03-26T22:35:13.056Z,90.80
2018-03-26T22:37:40.524Z,90.80
2018-03-26T22:40:08.779Z,90.70
2018-03-26T22:42:36.267Z,90.70
2018-03-26T22:45:04.543Z,90.70
2018-03-26T22:47:32.029Z,90.70
2018-03-26T22:49:59.527Z,90.70
2018-03-26T22:52:27.008Z,90.70
2018-03-26T22:54:54.558Z,90.80
2018-03-26T22:57:22.078Z,90.90
2018-03-26T22:59:49.590Z,91.10
2018-03-26T23:02:17.090Z,91.20
2018-03-26T23:04:44.572Z,91.50
2018-03-26T23:07:12.091Z,91.80
2018-03-26T23:09:39.594Z,91.60
2018-03-26T23:12:07.075Z,91.50
2018-03-26T23:14:34.550Z,91.40
2018-03-26T23:17:02.840Z,91.20
2018-03-26T23:19:30.314Z,91.20
2018-03-26T23:21:57.803Z,91.10
2018-03-26T23:24:25.283Z,91.10
2018-03-26T23:26:52.921Z,91.00
2018-03-26T23:29:20.480Z,91.00
2018-03-26T23:31:47.966Z,90.90
2018-03-26T23:34:15.428Z,90.80
2018-03-26T23:36:43.666Z,90.80
2018-03-26T23:39:11.244Z,90.70
2018-03-26T23:41:38.710Z,90.70
2018-03-26T23:44:06.962Z,90.70
2018-03-26T23:46:34.414Z,90.70
2018-03-26T23:49:01.931Z,90.70
2018-03-26T23:51:30.163Z,90.70
2018-03-26T23:53:57.638Z,90.70
2018-03-26T23:56:25.224Z,90.60
2018-03-26T23:58:53.768Z,90.70
